sensor_id;sensor_type;location;lat;lon;timestamp;P1;durP1;ratioP1;P2;durP2;ratioP2
23474;SDS011;11910;52.086;21.066;2022-12-10T00:01:41;120.63;;;69.05;;
23474;SDS011;11910;52.086;21.066;2022-12-10T00:04:13;113.57;;;66.25;;
23474;SDS011;11910;52.086;21.066;2022-12-10T00:06:39;113.13;;;64.78;;
23474;SDS011;11910;52.086;21.066;2022-12-10T00:09:39;110.72;;;65.70;;
23474;SDS011;11910;52.086;21.066;2022-12-10T00:12:06;102.53;;;62.40;;
23474;SDS011;11910;52.086;21.066;2022-12-10T00:15:10;116.85;;;65.45;;
23474;SDS011;11910;52.086;21.066;2022-12-10T00:17:36;139.75;;;73.50;;
23474;SDS011;11910;52.086;21.066;2022-12-10T00:23:02;109.13;;;64.32;;
23474;SDS011;11910;52.086;21.066;2022-12-10T00:25:29;114.05;;;65.10;;
23474;SDS011;11910;52.086;21.066;2022-12-10T00:27:54;108.85;;;64.43;;
23474;SDS011;11910;52.086;21.066;2022-12-10T00:30:20;109.70;;;65.10;;
23474;SDS011;11910;52.086;21.066;2022-12-10T00:32:46;114.05;;;64.25;;
23474;SDS011;11910;52.086;21.066;2022-12-10T00:35:12;119.07;;;66.97;;
23474;SDS011;11910;52.086;21.066;2022-12-10T00:37:37;104.72;;;63.08;;
23474;SDS011;11910;52.086;21.066;2022-12-10T00:40:03;106.45;;;62.38;;
23474;SDS011;11910;52.086;21.066;2022-12-10T00:42:37;151.88;;;74.93;;
23474;SDS011;11910;52.086;21.066;2022-12-10T00:45:03;116.07;;;65.88;;
23474;SDS011;11910;52.086;21.066;2022-12-10T00:47:30;123.05;;;68.57;;
23474;SDS011;11910;52.086;21.066;2022-12-10T00:49:56;121.95;;;66.95;;
23474;SDS011;11910;52.086;21.066;2022-12-10T00:52:24;119.18;;;67.25;;
23474;SDS011;11910;52.086;21.066;2022-12-10T00:54:50;111.88;;;63.42;;
23474;SDS011;11910;52.086;21.066;2022-12-10T00:57:19;112.75;;;63.25;;
23474;SDS011;11910;52.086;21.066;2022-12-10T00:59:44;108.78;;;63.42;;
23474;SDS011;11910;52.086;21.066;2022-12-10T01:02:31;123.43;;;68.60;;
23474;SDS011;11910;52.086;21.066;2022-12-10T01:04:57;137.73;;;71.95;;
23474;SDS011;11910;52.086;21.066;2022-12-10T01:07:25;131.80;;;70.32;;
23474;SDS011;11910;52.086;21.066;2022-12-10T01:10:04;118.20;;;64.43;;
23474;SDS011;11910;52.086;21.066;2022-12-10T01:15:31;142.93;;;71.68;;
23474;SDS011;11910;52.086;21.066;2022-12-10T01:18:16;113.90;;;64.68;;
23474;SDS011;11910;52.086;21.066;2022-12-10T01:20:42;133.63;;;71.53;;
23474;SDS011;11910;52.086;21.066;2022-12-10T01:23:32;113.07;;;64.15;;
23474;SDS011;11910;52.086;21.066;2022-12-10T01:26:23;120.50;;;65.30;;
23474;SDS011;11910;52.086;21.066;2022-12-10T01:29:17;125.18;;;66.90;;
23474;SDS011;11910;52.086;21.066;2022-12-10T01:32:08;151.70;;;72.25;;
23474;SDS011;11910;52.086;21.066;2022-12-10T01:35:09;120.78;;;65.65;;
23474;SDS011;11910;52.086;21.066;2022-12-10T01:37:37;120.13;;;65.20;;
23474;SDS011;11910;52.086;21.066;2022-12-10T01:40:13;112.82;;;61.70;;
23474;SDS011;11910;52.086;21.066;2022-12-10T01:42:51;117.07;;;63.15;;
23474;SDS011;11910;52.086;21.066;2022-12-10T01:45:20;109.28;;;61.65;;
23474;SDS011;11910;52.086;21.066;2022-12-10T01:47:51;140.38;;;71.03;;
23474;SDS011;11910;52.086;21.066;2022-12-10T01:50:44;124.78;;;66.68;;
23474;SDS011;11910;52.086;21.066;2022-12-10T01:53:21;115.07;;;61.55;;
23474;SDS011;11910;52.086;21.066;2022-12-10T01:56:01;132.85;;;67.30;;
23474;SDS011;11910;52.086;21.066;2022-12-10T01:58:50;129.48;;;65.75;;
23474;SDS011;11910;52.086;21.066;2022-12-10T02:11:22;131.18;;;64.25;;
23474;SDS011;11910;52.086;21.066;2022-12-10T02:14:12;113.35;;;58.53;;
23474;SDS011;11910;52.086;21.066;2022-12-10T02:16:58;103.07;;;56.55;;
23474;SDS011;11910;52.086;21.066;2022-12-10T02:22:01;122.72;;;61.50;;
23474;SDS011;11910;52.086;21.066;2022-12-10T02:24:33;103.30;;;56.05;;
23474;SDS011;11910;52.086;21.066;2022-12-10T02:29:40;95.93;;;53.28;;
23474;SDS011;11910;52.086;21.066;2022-12-10T02:32:12;108.88;;;56.53;;
23474;SDS011;11910;52.086;21.066;2022-12-10T02:34:42;102.47;;;55.00;;
23474;SDS011;11910;52.086;21.066;2022-12-10T02:37:14;88.45;;;50.25;;
23474;SDS011;11910;52.086;21.066;2022-12-10T02:40:22;99.43;;;52.45;;
23474;SDS011;11910;52.086;21.066;2022-12-10T02:42:51;106.18;;;55.72;;
23474;SDS011;11910;52.086;21.066;2022-12-10T02:45:21;91.75;;;51.30;;
23474;SDS011;11910;52.086;21.066;2022-12-10T02:47:50;84.32;;;48.65;;
23474;SDS011;11910;52.086;21.066;2022-12-10T02:50:19;88.32;;;47.72;;
23474;SDS011;11910;52.086;21.066;2022-12-10T02:59:16;95.32;;;50.25;;
23474;SDS011;11910;52.086;21.066;2022-12-10T03:02:17;92.03;;;47.17;;
23474;SDS011;11910;52.086;21.066;2022-12-10T03:04:57;83.82;;;45.92;;
23474;SDS011;11910;52.086;21.066;2022-12-10T03:12:33;71.03;;;41.75;;
23474;SDS011;11910;52.086;21.066;2022-12-10T03:15:02;72.15;;;41.85;;
23474;SDS011;11910;52.086;21.066;2022-12-10T03:20:41;84.32;;;43.72;;
23474;SDS011;11910;52.086;21.066;2022-12-10T03:27:03;74.95;;;40.50;;
23474;SDS011;11910;52.086;21.066;2022-12-10T03:40:12;72.07;;;38.92;;
23474;SDS011;11910;52.086;21.066;2022-12-10T03:42:38;81.60;;;40.60;;
23474;SDS011;11910;52.086;21.066;2022-12-10T03:45:17;67.30;;;38.97;;
23474;SDS011;11910;52.086;21.066;2022-12-10T03:51:28;67.80;;;37.92;;
23474;SDS011;11910;52.086;21.066;2022-12-10T03:57:57;54.63;;;32.83;;
23474;SDS011;11910;52.086;21.066;2022-12-10T04:00:37;56.83;;;33.53;;
23474;SDS011;11910;52.086;21.066;2022-12-10T04:03:05;57.50;;;34.42;;
23474;SDS011;11910;52.086;21.066;2022-12-10T04:08:08;65.45;;;35.20;;
23474;SDS011;11910;52.086;21.066;2022-12-10T04:14:16;64.95;;;35.45;;
23474;SDS011;11910;52.086;21.066;2022-12-10T04:17:18;64.10;;;35.42;;
23474;SDS011;11910;52.086;21.066;2022-12-10T04:26:33;56.97;;;32.30;;
23474;SDS011;11910;52.086;21.066;2022-12-10T04:29:23;56.72;;;32.83;;
23474;SDS011;11910;52.086;21.066;2022-12-10T04:35:04;56.97;;;32.95;;
23474;SDS011;11910;52.086;21.066;2022-12-10T04:37:45;50.90;;;30.23;;
